createdAt,value
2022-12-25T00:01:23.022Z,8.63
2022-12-25T00:03:50.884Z,9.02
2022-12-25T00:06:18.557Z,9.57
2022-12-25T00:08:45.982Z,9.07
2022-12-25T00:11:14.155Z,9.10
2022-12-25T00:13:41.695Z,8.80
2022-12-25T00:16:10.388Z,9.93
2022-12-25T00:18:37.683Z,9.73
2022-12-25T00:21:06.095Z,9.15
2022-12-25T00:23:34.232Z,10.07
2022-12-25T00:26:04.634Z,8.82
2022-12-25T00:28:32.007Z,8.75
2022-12-25T00:30:59.328Z,10.38
2022-12-25T00:33:26.714Z,9.90
2022-12-25T00:36:03.265Z,9.70
2022-12-25T00:38:30.542Z,10.40
2022-12-25T00:40:57.817Z,11.10
2022-12-25T00:43:25.415Z,10.40
2022-12-25T00:45:59.491Z,9.98
2022-12-25T00:48:27.351Z,10.20
2022-12-25T00:50:58.370Z,10.23
2022-12-25T00:53:26.472Z,9.30
2022-12-25T00:56:00.809Z,9.73
2022-12-25T00:58:30.038Z,10.70
2022-12-25T01:00:57.494Z,10.00
2022-12-25T01:03:25.393Z,9.70
2022-12-25T01:06:13.167Z,9.65
2022-12-25T01:09:00.134Z,10.68
2022-12-25T01:11:27.795Z,9.27
2022-12-25T01:13:55.095Z,10.23
2022-12-25T01:16:22.548Z,10.10
2022-12-25T01:18:49.829Z,10.02
2022-12-25T01:21:17.932Z,9.77
2022-12-25T01:23:45.432Z,10.77
2022-12-25T01:26:13.467Z,8.80
2022-12-25T01:28:41.118Z,9.10
2022-12-25T01:31:13.140Z,10.15
2022-12-25T01:33:41.405Z,10.48
2022-12-25T01:36:19.155Z,10.50
2022-12-25T01:38:47.184Z,10.30
2022-12-25T01:41:15.108Z,9.60
2022-12-25T01:44:02.778Z,7.88
2022-12-25T01:46:30.233Z,9.27
2022-12-25T01:48:58.812Z,10.07
2022-12-25T01:51:35.279Z,11.20
2022-12-25T01:54:04.659Z,11.02
2022-12-25T01:56:32.668Z,11.30
2022-12-25T01:59:00.343Z,10.00
2022-12-25T02:01:27.897Z,10.75
2022-12-25T02:03:58.236Z,10.07
2022-12-25T02:06:26.579Z,9.43
2022-12-25T02:08:53.887Z,10.50
2022-12-25T02:11:39.747Z,10.95
2022-12-25T02:14:07.029Z,11.18
2022-12-25T02:16:35.558Z,10.93
2022-12-25T02:19:49.916Z,10.45
2022-12-25T02:22:29.383Z,9.57
2022-12-25T02:25:03.601Z,11.65
2022-12-25T02:27:54.357Z,9.68
2022-12-25T02:30:22.224Z,10.23
2022-12-25T02:33:22.642Z,9.82
2022-12-25T02:35:52.952Z,11.45
2022-12-25T02:38:34.072Z,11.07
2022-12-25T02:41:06.754Z,10.35
2022-12-25T02:43:53.818Z,11.27
2022-12-25T02:46:42.037Z,10.52
2022-12-25T02:49:54.162Z,9.52
2022-12-25T02:52:42.151Z,10.98
2022-12-25T02:55:36.150Z,10.20
2022-12-25T02:58:23.834Z,10.35
2022-12-25T03:01:13.365Z,10.55
2022-12-25T03:04:00.314Z,10.98
2022-12-25T03:06:44.326Z,10.02
2022-12-25T03:09:42.361Z,11.15
2022-12-25T03:12:14.472Z,10.23
2022-12-25T03:15:00.465Z,10.77
2022-12-25T03:17:27.797Z,11.15
2022-12-25T03:20:14.042Z,10.93
2022-12-25T03:23:02.546Z,11.13
2022-12-25T03:25:49.015Z,9.90
2022-12-25T03:28:16.275Z,11.43
2022-12-25T03:31:14.051Z,11.32
2022-12-25T03:34:02.786Z,10.18
2022-12-25T03:36:35.597Z,10.70
2022-12-25T03:39:28.238Z,11.30
2022-12-25T03:42:17.310Z,11.05
2022-12-25T03:45:23.074Z,11.05
2022-12-25T03:48:11.115Z,10.25
2022-12-25T03:50:57.003Z,10.02
2022-12-25T03:53:48.809Z,10.57
2022-12-25T03:56:38.320Z,9.63
2022-12-25T03:59:24.458Z,9.65
2022-12-25T04:02:11.114Z,10.38
2022-12-25T04:04:57.580Z,9.93
2022-12-25T04:07:43.461Z,10.10
2022-12-25T04:10:29.676Z,10.32
2022-12-25T04:13:15.452Z,10.40
2022-12-25T04:16:01.321Z,9.65
2022-12-25T04:18:47.378Z,10.13
2022-12-25T04:21:33.285Z,10.40
2022-12-25T04:24:19.245Z,9.38
2022-12-25T04:27:05.375Z,8.88
2022-12-25T04:29:51.269Z,8.82
2022-12-25T04:32:37.250Z,8.00
2022-12-25T04:35:23.248Z,8.75
2022-12-25T04:37:50.527Z,8.55
2022-12-25T04:40:17.862Z,7.93
2022-12-25T04:42:45.181Z,8.77
2022-12-25T04:45:12.461Z,7.88
2022-12-25T04:47:39.856Z,7.70
2022-12-25T04:50:07.472Z,8.02
2022-12-25T04:52:41.562Z,7.70
2022-12-25T04:55:09.580Z,8.00
2022-12-25T04:57:36.899Z,7.10
2022-12-25T05:00:05.013Z,7.45
2022-12-25T05:02:32.518Z,7.30
2022-12-25T05:05:00.013Z,7.65
2022-12-25T05:07:27.237Z,7.20
2022-12-25T05:09:54.567Z,7.28
2022-12-25T05:12:21.875Z,7.63
2022-12-25T05:14:49.128Z,6.57
2022-12-25T05:17:16.632Z,7.10
2022-12-25T05:19:44.118Z,7.55
2022-12-25T05:22:11.373Z,6.45
2022-12-25T05:24:38.737Z,6.57
2022-12-25T05:27:06.010Z,6.72
2022-12-25T05:29:33.301Z,7.07
2022-12-25T05:32:00.596Z,5.57
2022-12-25T05:34:27.865Z,5.57
2022-12-25T05:36:56.617Z,6.73
2022-12-25T05:39:24.419Z,5.53
2022-12-25T05:41:51.667Z,5.78
2022-12-25T05:44:18.916Z,5.85
2022-12-25T05:46:46.266Z,5.03
2022-12-25T05:49:13.601Z,6.10
2022-12-25T05:51:40.862Z,5.18
2022-12-25T05:54:08.354Z,5.32
2022-12-25T05:56:37.685Z,4.60
2022-12-25T05:59:04.943Z,5.63
2022-12-25T06:01:32.358Z,4.67
2022-12-25T06:03:59.836Z,5.03
2022-12-25T06:06:27.145Z,4.07
2022-12-25T06:08:55.302Z,4.63
2022-12-25T06:11:22.623Z,5.63
2022-12-25T06:13:53.454Z,5.57
2022-12-25T06:16:21.025Z,5.40
2022-12-25T06:18:50.002Z,4.80
2022-12-25T06:21:17.402Z,4.80
2022-12-25T06:23:44.856Z,4.30
2022-12-25T06:26:13.571Z,4.93
2022-12-25T06:28:41.061Z,4.47
2022-12-25T06:31:09.362Z,3.63
2022-12-25T06:33:36.887Z,5.25
2022-12-25T06:36:08.327Z,5.22
2022-12-25T06:38:35.769Z,5.53
2022-12-25T06:41:10.646Z,5.40
2022-12-25T06:43:38.633Z,5.63
2022-12-25T06:46:07.029Z,5.68
2022-12-25T06:48:34.689Z,4.88
2022-12-25T06:51:02.903Z,5.23
2022-12-25T06:53:37.129Z,4.90
2022-12-25T06:56:08.266Z,5.72
2022-12-25T06:58:35.551Z,6.25
2022-12-25T07:01:07.320Z,5.60
2022-12-25T07:03:34.680Z,5.25
2022-12-25T07:06:01.914Z,4.30
2022-12-25T07:08:29.198Z,4.75
2022-12-25T07:10:56.479Z,4.47
2022-12-25T07:13:24.529Z,4.57
2022-12-25T07:15:57.392Z,4.75
2022-12-25T07:18:24.886Z,4.47
2022-12-25T07:20:52.171Z,4.50
2022-12-25T07:23:19.375Z,4.57
2022-12-25T07:25:53.771Z,6.15
2022-12-25T07:28:20.990Z,3.97
2022-12-25T07:30:48.377Z,4.57
2022-12-25T07:33:15.825Z,4.38
2022-12-25T07:35:43.272Z,5.13
2022-12-25T07:38:11.346Z,4.60
2022-12-25T07:40:39.143Z,4.83
2022-12-25T07:43:06.482Z,5.60
2022-12-25T07:45:34.307Z,4.95
2022-12-25T07:48:05.477Z,4.82
2022-12-25T07:50:34.113Z,4.55
2022-12-25T07:53:01.428Z,5.53
2022-12-25T07:55:28.716Z,4.95
2022-12-25T07:57:55.984Z,4.72
2022-12-25T08:00:23.293Z,4.90
2022-12-25T08:02:51.005Z,6.38
2022-12-25T08:05:18.731Z,5.18
2022-12-25T08:07:46.016Z,6.35
2022-12-25T08:10:13.246Z,5.57
2022-12-25T08:12:40.603Z,5.55
2022-12-25T08:15:07.997Z,6.13
2022-12-25T08:17:35.783Z,6.20
2022-12-25T08:20:03.126Z,6.00
2022-12-25T08:22:30.404Z,5.50
2022-12-25T08:24:57.706Z,5.53
2022-12-25T08:27:25.006Z,6.50
2022-12-25T08:29:52.410Z,6.03
2022-12-25T08:32:20.042Z,6.93
2022-12-25T08:34:47.434Z,5.93
2022-12-25T08:37:14.736Z,5.85
2022-12-25T08:39:42.023Z,5.60
2022-12-25T08:42:09.291Z,5.70
2022-12-25T08:44:37.155Z,5.78
2022-12-25T08:47:04.492Z,5.07
2022-12-25T08:49:31.776Z,5.20
2022-12-25T08:51:59.190Z,5.40
2022-12-25T08:54:26.695Z,4.68
2022-12-25T08:56:58.603Z,5.82
2022-12-25T08:59:29.643Z,5.43
2022-12-25T09:01:57.012Z,5.57
2022-12-25T09:04:24.525Z,5.68
2022-12-25T09:06:51.814Z,6.20
2022-12-25T09:09:19.087Z,5.38
2022-12-25T09:11:46.420Z,5.32
2022-12-25T09:14:14.282Z,4.78
2022-12-25T09:16:41.913Z,5.70
2022-12-25T09:19:09.272Z,5.45
2022-12-25T09:21:39.384Z,5.22
2022-12-25T09:24:06.742Z,4.32
2022-12-25T09:26:34.027Z,4.57
2022-12-25T09:29:01.413Z,5.38
2022-12-25T09:31:28.720Z,5.40
2022-12-25T09:33:58.073Z,5.43
2022-12-25T09:36:26.210Z,5.38
2022-12-25T09:38:54.171Z,5.55
2022-12-25T09:41:32.923Z,5.20
2022-12-25T09:44:03.364Z,5.15
2022-12-25T09:46:37.230Z,6.00
2022-12-25T09:49:43.568Z,5.53
2022-12-25T09:52:12.695Z,5.18
2022-12-25T09:54:42.922Z,5.10
2022-12-25T09:57:12.196Z,4.60
2022-12-25T09:59:39.786Z,6.28
2022-12-25T10:02:27.408Z,4.90
2022-12-25T10:04:55.096Z,4.70
2022-12-25T10:07:41.387Z,5.53
2022-12-25T10:10:25.025Z,5.85
2022-12-25T10:12:52.669Z,5.57
2022-12-25T10:15:30.394Z,5.95
2022-12-25T10:18:24.163Z,5.78
2022-12-25T10:20:53.040Z,5.38
2022-12-25T10:23:40.563Z,5.55
2022-12-25T10:26:21.255Z,6.50
2022-12-25T10:28:54.406Z,5.97
2022-12-25T10:31:26.400Z,6.53
2022-12-25T10:33:54.668Z,6.10
2022-12-25T10:36:27.218Z,6.53
2022-12-25T10:38:54.783Z,6.10
2022-12-25T10:41:31.650Z,5.35
2022-12-25T10:43:58.980Z,5.53
2022-12-25T10:46:28.265Z,5.68
2022-12-25T10:49:00.319Z,6.17
2022-12-25T10:51:30.765Z,6.70
2022-12-25T10:53:58.147Z,5.10
2022-12-25T10:56:25.539Z,5.55
2022-12-25T10:59:04.762Z,5.63
2022-12-25T11:01:32.332Z,5.77
2022-12-25T11:03:59.829Z,5.18
2022-12-25T11:06:29.065Z,5.43
2022-12-25T11:08:58.577Z,5.53
2022-12-25T11:11:26.162Z,5.43
2022-12-25T11:13:55.129Z,5.10
2022-12-25T11:16:30.448Z,5.15
2022-12-25T11:18:58.184Z,5.82
2022-12-25T11:21:29.614Z,5.57
2022-12-25T11:23:58.721Z,5.25
2022-12-25T11:26:26.746Z,5.72
2022-12-25T11:28:55.771Z,5.13
2022-12-25T11:31:43.375Z,5.95
2022-12-25T11:34:15.399Z,5.53
2022-12-25T11:36:47.220Z,6.13
2022-12-25T11:39:35.093Z,6.23
2022-12-25T11:42:05.090Z,6.63
2022-12-25T11:44:39.341Z,6.20
2022-12-25T11:47:13.325Z,6.55
2022-12-25T11:49:49.860Z,7.10
2022-12-25T11:52:18.526Z,6.47
2022-12-25T11:54:52.631Z,5.97
2022-12-25T11:57:20.301Z,6.70
2022-12-25T11:59:56.660Z,6.60
2022-12-25T12:02:27.073Z,6.57
2022-12-25T12:05:21.390Z,6.27
2022-12-25T12:07:59.859Z,5.60
2022-12-25T12:10:32.006Z,6.25
2022-12-25T12:13:02.071Z,7.05
2022-12-25T12:15:31.312Z,6.30
2022-12-25T12:18:19.931Z,7.47
2022-12-25T12:20:57.965Z,6.45
2022-12-25T12:23:25.518Z,6.50
2022-12-25T12:25:52.972Z,6.68
2022-12-25T12:28:28.377Z,7.55
2022-12-25T12:31:00.939Z,6.77
2022-12-25T12:33:30.382Z,6.50
2022-12-25T12:35:58.052Z,6.28
2022-12-25T12:38:25.691Z,6.78
2022-12-25T12:41:01.613Z,7.43
2022-12-25T12:43:28.897Z,6.73
2022-12-25T12:46:31.063Z,6.70
2022-12-25T12:49:20.823Z,7.15
2022-12-25T12:51:48.222Z,7.57
2022-12-25T12:54:23.305Z,7.38
2022-12-25T12:56:57.532Z,6.83
2022-12-25T12:59:25.217Z,7.70
2022-12-25T13:01:57.476Z,8.13
2022-12-25T13:04:44.969Z,8.07
2022-12-25T13:07:21.758Z,7.60
2022-12-25T13:10:01.438Z,7.77
2022-12-25T13:12:28.829Z,7.97
2022-12-25T13:14:56.323Z,7.95
2022-12-25T13:17:24.419Z,8.35
2022-12-25T13:19:58.006Z,7.43
2022-12-25T13:22:27.337Z,6.97
2022-12-25T13:24:56.751Z,7.10
2022-12-25T13:27:25.397Z,7.68
2022-12-25T13:29:52.775Z,7.95
2022-12-25T13:32:22.884Z,8.35
2022-12-25T13:34:50.815Z,8.35
2022-12-25T13:37:19.658Z,8.20
2022-12-25T13:39:49.255Z,9.18
2022-12-25T13:42:18.179Z,7.95
2022-12-25T13:44:50.084Z,8.70
2022-12-25T13:47:17.519Z,8.55
2022-12-25T13:49:45.152Z,8.13
2022-12-25T13:52:13.587Z,9.32
2022-12-25T13:54:40.982Z,8.98
2022-12-25T13:57:13.317Z,9.80
2022-12-25T13:59:40.663Z,8.30
2022-12-25T14:02:15.319Z,8.70
2022-12-25T14:04:44.971Z,8.35
2022-12-25T14:07:12.754Z,8.50
2022-12-25T14:09:41.006Z,8.52
2022-12-25T14:12:11.778Z,8.90
2022-12-25T14:14:43.672Z,11.13
2022-12-25T14:17:12.635Z,9.75
2022-12-25T14:19:40.077Z,9.43
2022-12-25T14:22:12.547Z,10.40
2022-12-25T14:24:40.985Z,10.50
2022-12-25T14:27:16.913Z,10.13
2022-12-25T14:29:45.405Z,10.40
2022-12-25T14:32:17.845Z,10.90
2022-12-25T14:34:47.022Z,10.18
2022-12-25T14:37:20.002Z,9.90
2022-12-25T14:39:55.089Z,9.88
2022-12-25T14:42:23.809Z,9.55
2022-12-25T14:45:01.341Z,10.32
2022-12-25T14:47:28.654Z,8.73
2022-12-25T14:49:56.827Z,9.73
2022-12-25T14:52:43.361Z,9.82
2022-12-25T14:55:18.868Z,9.50
2022-12-25T14:57:49.120Z,8.88
2022-12-25T15:00:19.639Z,9.73
2022-12-25T15:02:47.961Z,9.80
2022-12-25T15:05:30.710Z,10.30
2022-12-25T15:08:07.444Z,10.20
2022-12-25T15:13:22.789Z,10.50
2022-12-25T15:15:55.389Z,11.03
2022-12-25T15:18:23.784Z,10.45
2022-12-25T15:20:52.564Z,10.40
2022-12-25T15:23:20.908Z,10.70
2022-12-25T15:25:48.640Z,11.07
2022-12-25T15:28:15.942Z,11.60
2022-12-25T15:30:43.452Z,10.60
2022-12-25T15:33:15.588Z,10.57
2022-12-25T15:35:44.390Z,11.10
2022-12-25T15:38:13.049Z,11.50
2022-12-25T15:40:40.933Z,10.45
2022-12-25T15:43:21.097Z,10.65
2022-12-25T15:45:57.329Z,10.35
2022-12-25T15:48:24.588Z,10.05
2022-12-25T15:50:51.808Z,10.73
2022-12-25T15:53:19.123Z,10.00
2022-12-25T15:55:46.427Z,10.90
2022-12-25T15:58:15.138Z,11.93
2022-12-25T16:00:42.489Z,10.15
2022-12-25T16:03:09.989Z,10.95
2022-12-25T16:05:37.508Z,10.87
2022-12-25T16:08:04.915Z,11.13
2022-12-25T16:10:38.255Z,10.90
2022-12-25T16:13:06.086Z,10.10
2022-12-25T16:15:33.582Z,10.65
2022-12-25T16:18:01.008Z,11.27
2022-12-25T16:20:28.785Z,11.45
2022-12-25T16:22:56.175Z,10.30
2022-12-25T16:25:24.068Z,10.18
2022-12-25T16:27:51.373Z,11.60
2022-12-25T16:30:18.721Z,10.77
2022-12-25T16:32:49.652Z,10.77
2022-12-25T16:35:17.916Z,11.77
2022-12-25T16:37:45.206Z,11.93
2022-12-25T16:40:12.525Z,12.38
2022-12-25T16:42:39.937Z,10.93
2022-12-25T16:45:07.515Z,12.13
2022-12-25T16:47:34.854Z,11.80
2022-12-25T16:50:03.713Z,12.73
2022-12-25T16:52:31.678Z,11.55
2022-12-25T16:54:59.427Z,12.47
2022-12-25T16:57:27.022Z,11.32
2022-12-25T16:59:54.397Z,13.23
2022-12-25T17:02:22.215Z,12.85
2022-12-25T17:04:49.894Z,13.05
2022-12-25T17:07:17.920Z,12.77
2022-12-25T17:09:48.216Z,12.80
2022-12-25T17:12:16.103Z,12.55
2022-12-25T17:14:43.487Z,12.98
2022-12-25T17:17:12.052Z,13.18
2022-12-25T17:19:39.613Z,13.40
2022-12-25T17:22:07.521Z,12.45
2022-12-25T17:24:37.250Z,13.63
2022-12-25T17:27:09.319Z,12.57
2022-12-25T17:29:39.791Z,13.45
2022-12-25T17:32:10.692Z,14.77
2022-12-25T17:34:38.411Z,15.02
2022-12-25T17:37:05.857Z,15.50
2022-12-25T17:39:33.256Z,15.95
2022-12-25T17:42:00.575Z,13.98
2022-12-25T17:44:27.959Z,15.55
2022-12-25T17:46:55.325Z,14.07
2022-12-25T17:49:23.210Z,13.55
2022-12-25T17:51:50.639Z,14.27
2022-12-25T17:54:19.988Z,13.95
2022-12-25T17:56:47.987Z,14.03
2022-12-25T17:59:18.839Z,13.13
2022-12-25T18:01:47.155Z,13.52
2022-12-25T18:04:14.706Z,13.75
2022-12-25T18:06:42.000Z,14.10
2022-12-25T18:09:11.122Z,14.87
2022-12-25T18:11:42.824Z,13.43
2022-12-25T18:14:12.482Z,14.88
2022-12-25T18:16:41.939Z,14.75
2022-12-25T18:19:09.926Z,13.50
2022-12-25T18:21:37.507Z,14.13
2022-12-25T18:24:05.693Z,14.32
2022-12-25T18:26:33.369Z,15.18
2022-12-25T18:29:00.789Z,13.55
2022-12-25T18:31:30.271Z,14.07
2022-12-25T18:33:57.895Z,14.70
2022-12-25T18:36:26.430Z,14.35
2022-12-25T18:38:54.447Z,13.93
2022-12-25T18:41:22.275Z,13.43
2022-12-25T18:43:52.221Z,11.93
2022-12-25T18:46:26.477Z,13.00
2022-12-25T18:48:55.600Z,12.90
2022-12-25T18:51:23.303Z,12.80
2022-12-25T18:53:51.242Z,14.02
2022-12-25T18:56:20.383Z,17.65
2022-12-25T18:58:48.058Z,13.97
2022-12-25T19:01:19.815Z,13.98
2022-12-25T19:03:49.239Z,12.48
2022-12-25T19:06:18.738Z,13.77
2022-12-25T19:08:46.300Z,12.85
2022-12-25T19:11:13.925Z,13.20
2022-12-25T19:13:41.261Z,14.80
2022-12-25T19:16:08.603Z,13.05
2022-12-25T19:18:35.921Z,14.85
2022-12-25T19:21:04.598Z,15.38
2022-12-25T19:23:31.926Z,15.30
2022-12-25T19:25:59.197Z,16.85
2022-12-25T19:28:26.833Z,14.60
2022-12-25T19:30:54.483Z,12.88
2022-12-25T19:33:22.899Z,13.63
2022-12-25T19:35:50.370Z,14.30
2022-12-25T19:38:17.693Z,13.95
2022-12-25T19:41:00.406Z,14.68
2022-12-25T19:43:32.600Z,13.95
2022-12-25T19:46:00.338Z,14.50
2022-12-25T19:48:29.168Z,13.67
2022-12-25T19:50:56.583Z,13.93
2022-12-25T19:53:23.933Z,14.45
2022-12-25T19:55:54.785Z,12.90
2022-12-25T19:58:22.715Z,15.30
2022-12-25T20:01:05.093Z,13.87
2022-12-25T20:03:32.739Z,15.30
2022-12-25T20:06:00.155Z,17.23
2022-12-25T20:08:27.470Z,20.73
2022-12-25T20:10:54.785Z,22.50
2022-12-25T20:13:22.081Z,24.70
2022-12-25T20:15:49.463Z,15.18
2022-12-25T20:18:17.259Z,18.15
2022-12-25T20:20:45.523Z,17.02
2022-12-25T20:23:12.821Z,18.05
2022-12-25T20:25:41.558Z,16.10
2022-12-25T20:28:09.175Z,14.70
2022-12-25T20:30:39.449Z,16.77
2022-12-25T20:33:06.803Z,15.43
2022-12-25T20:35:34.237Z,22.38
2022-12-25T20:38:01.589Z,15.60
2022-12-25T20:40:28.901Z,15.38
2022-12-25T20:42:56.171Z,13.88
2022-12-25T20:45:23.469Z,15.13
2022-12-25T20:47:50.826Z,14.98
2022-12-25T20:50:18.155Z,14.67
2022-12-25T20:52:45.453Z,15.65
2022-12-25T20:55:14.206Z,19.80
2022-12-25T20:57:41.525Z,14.93
2022-12-25T21:00:09.021Z,16.88
2022-12-25T21:02:37.962Z,17.43
2022-12-25T21:05:06.967Z,16.10
2022-12-25T21:07:34.902Z,14.60
2022-12-25T21:10:02.145Z,15.13
2022-12-25T21:12:29.419Z,15.30
2022-12-25T21:14:56.636Z,16.47
2022-12-25T21:17:23.934Z,39.17
2022-12-25T21:19:51.220Z,15.55
2022-12-25T21:22:18.455Z,18.33
2022-12-25T21:24:45.745Z,14.80
2022-12-25T21:27:13.085Z,15.10
2022-12-25T21:29:40.383Z,21.05
2022-12-25T21:32:26.398Z,16.88
2022-12-25T21:34:53.683Z,15.38
2022-12-25T21:37:20.932Z,14.48
2022-12-25T21:39:51.160Z,16.07
2022-12-25T21:42:18.502Z,19.50
2022-12-25T21:44:45.781Z,14.95
2022-12-25T21:47:13.326Z,15.90
2022-12-25T21:49:59.417Z,14.90
2022-12-25T21:52:26.732Z,14.23
2022-12-25T21:54:54.078Z,14.50
2022-12-25T21:57:21.295Z,21.85
2022-12-25T21:59:48.806Z,15.90
2022-12-25T22:02:16.337Z,15.05
2022-12-25T22:04:43.858Z,12.27
2022-12-25T22:07:17.531Z,14.35
2022-12-25T22:09:46.054Z,13.68
2022-12-25T22:12:34.284Z,14.15
2022-12-25T22:15:09.454Z,12.88
2022-12-25T22:17:56.847Z,12.03
2022-12-25T22:20:26.394Z,15.20
2022-12-25T22:22:53.924Z,15.55
2022-12-25T22:25:21.469Z,13.43
2022-12-25T22:27:49.335Z,13.38
2022-12-25T22:30:20.993Z,13.70
2022-12-25T22:32:48.528Z,13.07
2022-12-25T22:35:17.026Z,12.60
2022-12-25T22:37:44.696Z,20.48
2022-12-25T22:40:14.114Z,12.65
2022-12-25T22:42:42.192Z,12.07
2022-12-25T22:45:09.769Z,12.25
2022-12-25T22:47:37.073Z,11.50
2022-12-25T22:50:05.112Z,11.45
2022-12-25T22:52:32.531Z,10.93
2022-12-25T22:54:59.795Z,11.87
2022-12-25T22:57:27.219Z,10.98
2022-12-25T22:59:54.510Z,10.75
2022-12-25T23:02:22.381Z,10.95
2022-12-25T23:04:49.783Z,10.80
2022-12-25T23:07:17.590Z,11.98
2022-12-25T23:09:45.298Z,10.80
2022-12-25T23:12:32.559Z,10.80
2022-12-25T23:14:59.860Z,9.20
2022-12-25T23:17:45.734Z,9.50
2022-12-25T23:20:33.450Z,10.30
2022-12-25T23:23:19.882Z,10.02
2022-12-25T23:26:06.033Z,9.68
2022-12-25T23:28:51.819Z,10.50
2022-12-25T23:31:20.264Z,9.95
2022-12-25T23:33:47.564Z,10.77
2022-12-25T23:36:14.816Z,10.18
2022-12-25T23:38:42.174Z,10.50
2022-12-25T23:41:09.430Z,9.70
2022-12-25T23:43:36.793Z,9.90
2022-12-25T23:46:04.257Z,11.57
2022-12-25T23:48:31.642Z,10.43
2022-12-25T23:51:02.676Z,11.38
2022-12-25T23:53:29.951Z,11.27
2022-12-25T23:55:57.610Z,10.63
2022-12-25T23:58:25.476Z,12.03
